Terminal Aerodrome Forecast
Issued by NWS Cleveland, OH

Home | Current Version | Previous Version | Text Only | Print | Product List | Glossary On
Versions: 1 2 3 4 5 6 7 8 9 10 11 12 13 14
000
FTUS41 KCLE 191720
TAFERI
TAF
KERI 191720Z 1918/2018 28010KT P6SM VCSH SCT045 BKN060
     FM192100 28011KT P6SM SCT045 BKN120
     FM192300 28009KT P6SM FEW028 SCT200
     FM200200 28005KT P6SM FEW250
     FM200500 21004KT P6SM FEW200
     FM201500 27008KT P6SM FEW250=

USA.gov is the U.S. government's official web portal to all federal, state and local government web resources and services.